Tok, AK

12:26 AM AKDT on June 02, 2015 (GMT -0800)
Turks on the Tundra | | Change Station
CLOSE
Current Station
Personal Weather Station
Location: Tok, AK
Elevation: 1635 ft
Nearby Weather Stations
Active Advisory: Fire Weather Watch Active Notice: Record Report

Elev 1635 ft 63.34 °N, 142.99 °W | Updated 12 minutes ago

Overcast
Overcast
39.7 °F
Feels Like 40 °F
N
2.0
Wind Variable Wind from North
Gusts 4.0 mph

Today
High -- | Low -- °F
--% Chance of Precip.
Yesterday
High -- | Low -- °F
Precip. -- in
3:38 AM 11:23 PM
Full, 100% visible
Pressure 29.80 in
Visibility 10.0 miles
Clouds Few 500 ft
Scattered Clouds 4000 ft
Overcast 6000 ft
Windchill 40 °F
Dew Point 38 °F
Humidity 94%
Rainfall 0.00 in
Snow Depth Not available.
UV 0 out of 12
Pollen Not available.
Air Quality Not available.
Flu Activity Sporadic
SPECI PAOR 020816Z 31004KT 10SM FEW005 SCT040 OVC060 05/03 A2980 RMK AO2 RAE15 P0000 T00500033

More Conditions Fewer Conditions

Pressure 29.80 in
Visibility 10.0 miles
Clouds Few 500 ft
Scattered Clouds 4000 ft
Overcast 6000 ft
Windchill 40 °F
Dew Point 38 °F
Humidity 94%
Rainfall 0.00 in
Snow Depth Not available.
UV 0 out of 12
Pollen Not available.
Air Quality Not available.
Flu Activity Sporadic
SPECI PAOR 020816Z 31004KT 10SM FEW005 SCT040 OVC060 05/03 A2980 RMK AO2 RAE15 P0000 T00500033

More Conditions Fewer Conditions

10-Day Weather Forecast

Almanac

Astronomy

Jun. 02, 2015 Rise Set
Actual Time
Civil Twilight
Nautical Twilight
Astronomical Twilight
Moon
Length of Visible Light
Length of Day
Tomorrow will be .
, % of the Moon is Illuminated

Today's Extremes

State Highs State Lows

Community

WunderPhotos

Upload Photos

1,825,895 photos uploaded!

WunderBlogs® & News

Nearby

Air Quality

  Air Quality AQ Index Pollutant
Not available.

Snow Depth

Station Depth Elevation

Earthquake Activity

City Distance Mag. Time & Date
Minimum magnitude displayed is 2.5.

Coastal Water Temperatures

Place Temperature

Stations

Nearby Weather Stations

Station Location Temp. Windchill Dew Point Humidity Wind Precip. Elev Updated Type
                   
Fire Weather Watch
Statement as of 10:00 PM AKDT on June 01, 2015

... Fire Weather Watch remains in effect from Wednesday afternoon
through Wednesday evening for strong winds for fire weather
zone 224...

* wind... gusting around 30 mph.

* Humidity... less than 30 percent.

* Impacts... any fires that develop will likely spread rapidly.
Outdoor burning is not recommended.

Precautionary/preparedness actions...

A Fire Weather Watch means that weather conditions could lead to
the potential for a red flag event in the near future. This watch
will remain in effect until it is upgraded to a red flag warning
or that it is determined that the red flag event will not
develop.

Please advise the appropriate officials or fire crews in the
field of this Fire Weather Watch.